createdAt,value
2023-01-30T00:01:11.961Z,-0.26
2023-01-30T00:03:38.541Z,-0.23
2023-01-30T00:06:05.129Z,-0.28
2023-01-30T00:08:31.621Z,-0.29
2023-01-30T00:11:04.257Z,-0.22
2023-01-30T00:13:30.978Z,-0.27
2023-01-30T00:15:57.737Z,-0.26
2023-01-30T00:18:24.246Z,-0.28
2023-01-30T00:20:57.860Z,-0.26
2023-01-30T00:23:25.707Z,-0.25
2023-01-30T00:25:52.683Z,-0.30
2023-01-30T00:28:19.494Z,-0.28
2023-01-30T00:30:48.831Z,-0.29
2023-01-30T00:33:15.371Z,-0.28
2023-01-30T00:35:48.713Z,-0.29
2023-01-30T00:38:15.988Z,-0.36
2023-01-30T00:40:42.930Z,-0.34
2023-01-30T00:43:33.172Z,-0.34
2023-01-30T00:46:19.654Z,-0.40
2023-01-30T00:48:46.334Z,-0.41
2023-01-30T00:51:13.406Z,-0.38
2023-01-30T00:53:39.920Z,-0.40
2023-01-30T00:56:06.988Z,-0.38
2023-01-30T00:58:33.875Z,-0.43
2023-01-30T01:01:00.380Z,-0.39
2023-01-30T01:03:26.982Z,-0.40
2023-01-30T01:05:53.474Z,-0.34
2023-01-30T01:08:20.196Z,-0.31
2023-01-30T01:10:46.774Z,-0.26
2023-01-30T01:13:13.303Z,-0.28
2023-01-30T01:15:39.773Z,-0.23
2023-01-30T01:18:06.681Z,-0.24
2023-01-30T01:20:33.192Z,-0.19
2023-01-30T01:22:59.676Z,-0.18
2023-01-30T01:25:26.341Z,-0.25
2023-01-30T01:27:54.147Z,-0.18
2023-01-30T01:30:21.074Z,-0.35
2023-01-30T01:32:47.532Z,-0.09
2023-01-30T01:35:14.071Z,-0.14
2023-01-30T01:37:40.566Z,-0.20
2023-01-30T01:40:26.358Z,-0.06
2023-01-30T01:42:52.905Z,-0.29
2023-01-30T01:45:22.851Z,-0.20
2023-01-30T01:47:54.314Z,-0.15
2023-01-30T01:50:27.528Z,-0.07
2023-01-30T01:52:56.382Z,-0.07
2023-01-30T01:55:24.751Z,-0.09
2023-01-30T01:57:56.168Z,-0.08
2023-01-30T02:00:23.646Z,-0.13
2023-01-30T02:02:57.903Z,-0.22
2023-01-30T02:05:27.179Z,-0.08
2023-01-30T02:07:57.525Z,-0.08
2023-01-30T02:10:27.990Z,-0.03
2023-01-30T02:12:54.508Z,-0.04
2023-01-30T02:15:21.057Z,-0.04
2023-01-30T02:17:47.601Z,-0.17
2023-01-30T02:20:27.719Z,-0.31
2023-01-30T02:23:45.576Z,-0.28
2023-01-30T02:26:29.560Z,-0.34
2023-01-30T02:29:35.095Z,-0.11
2023-01-30T02:32:16.625Z,-0.03
2023-01-30T02:34:51.677Z,-0.18
2023-01-30T02:37:28.771Z,-0.22
2023-01-30T02:40:26.630Z,-0.15
2023-01-30T02:43:24.650Z,-0.24
2023-01-30T02:45:56.297Z,-0.26
2023-01-30T02:48:40.242Z,-0.29
2023-01-30T02:51:11.883Z,-0.23
2023-01-30T02:53:38.417Z,-0.34
2023-01-30T02:56:05.863Z,-0.29
2023-01-30T02:58:37.655Z,-0.24
2023-01-30T03:01:10.106Z,-0.32
2023-01-30T03:04:01.479Z,-0.37
2023-01-30T03:06:44.672Z,-0.44
2023-01-30T03:09:58.370Z,-0.51
2023-01-30T03:12:50.202Z,-0.52
2023-01-30T03:15:21.789Z,-0.53
2023-01-30T03:17:48.515Z,-0.53
2023-01-30T03:20:16.988Z,-0.54
2023-01-30T03:22:43.421Z,-0.56
2023-01-30T03:25:11.837Z,-0.55
2023-01-30T03:27:38.536Z,-0.63
2023-01-30T03:30:05.598Z,-0.61
2023-01-30T03:32:32.285Z,-0.75
2023-01-30T03:34:58.901Z,-0.77
2023-01-30T03:37:25.368Z,-0.78
2023-01-30T03:39:51.947Z,-0.75
2023-01-30T03:42:18.424Z,-0.78
2023-01-30T03:44:44.962Z,-0.87
2023-01-30T03:47:11.609Z,-0.93
2023-01-30T03:49:38.156Z,-0.96
2023-01-30T03:52:04.765Z,-0.98
2023-01-30T03:54:31.238Z,-1.02
2023-01-30T03:56:57.742Z,-1.02
2023-01-30T03:59:24.208Z,-1.10
2023-01-30T04:01:50.685Z,-1.07
2023-01-30T04:04:17.179Z,-1.11
2023-01-30T04:06:43.637Z,-1.06
2023-01-30T04:09:10.108Z,-1.09
2023-01-30T04:11:36.571Z,-1.01
2023-01-30T04:14:03.249Z,-1.06
2023-01-30T04:16:29.835Z,-1.04
2023-01-30T04:18:56.405Z,-1.01
2023-01-30T04:21:22.984Z,-1.06
2023-01-30T04:23:49.577Z,-1.11
2023-01-30T04:26:16.249Z,-1.12
2023-01-30T04:28:44.471Z,-1.13
2023-01-30T04:31:11.820Z,-1.17
2023-01-30T04:33:39.981Z,-1.08
2023-01-30T04:36:08.454Z,-1.04
2023-01-30T04:38:35.622Z,-1.08
2023-01-30T04:41:02.454Z,-0.97
2023-01-30T04:43:29.667Z,-1.02
2023-01-30T04:45:56.346Z,-1.03
2023-01-30T04:48:24.725Z,-1.01
2023-01-30T04:50:52.788Z,-0.98
2023-01-30T04:53:20.363Z,-0.91
2023-01-30T04:55:47.364Z,-0.83
2023-01-30T04:58:13.947Z,-0.77
2023-01-30T05:00:40.527Z,-0.88
2023-01-30T05:03:07.165Z,-0.93
2023-01-30T05:05:34.344Z,-0.89
2023-01-30T05:08:01.681Z,-0.92
2023-01-30T05:10:28.239Z,-1.04
2023-01-30T05:12:57.846Z,-0.96
2023-01-30T05:15:24.559Z,-0.99
2023-01-30T05:17:51.076Z,-1.01
2023-01-30T05:20:17.959Z,-0.89
2023-01-30T05:22:44.455Z,-1.04
2023-01-30T05:25:11.732Z,-1.02
2023-01-30T05:27:38.267Z,-1.01
2023-01-30T05:30:05.427Z,-1.01
2023-01-30T05:32:32.069Z,-0.97
2023-01-30T05:34:58.491Z,-0.95
2023-01-30T05:37:25.249Z,-1.00
2023-01-30T05:39:51.944Z,-0.99
2023-01-30T05:42:18.449Z,-0.95
2023-01-30T05:44:45.065Z,-0.92
2023-01-30T05:47:11.961Z,-0.94
2023-01-30T05:49:38.580Z,-0.95
2023-01-30T05:52:05.347Z,-0.94
2023-01-30T05:54:31.810Z,-1.02
2023-01-30T05:56:58.265Z,-1.01
2023-01-30T05:59:24.852Z,-1.03
2023-01-30T06:01:51.410Z,-0.97
2023-01-30T06:04:17.917Z,-0.99
2023-01-30T06:06:44.395Z,-0.97
2023-01-30T06:09:11.767Z,-0.97
2023-01-30T06:11:38.312Z,-0.99
2023-01-30T06:14:04.917Z,-1.02
2023-01-30T06:16:31.628Z,-0.95
2023-01-30T06:18:58.292Z,-0.88
2023-01-30T06:21:24.960Z,-0.79
2023-01-30T06:23:51.568Z,-0.73
2023-01-30T06:26:18.147Z,-0.77
2023-01-30T06:28:44.881Z,-0.84
2023-01-30T06:31:11.774Z,-0.80
2023-01-30T06:33:38.316Z,-0.77
2023-01-30T06:36:05.030Z,-0.74
2023-01-30T06:38:31.517Z,-0.75
2023-01-30T06:40:57.970Z,-0.77
2023-01-30T06:43:24.557Z,-0.72
2023-01-30T06:45:51.044Z,-0.80
2023-01-30T06:48:17.587Z,-0.85
2023-01-30T06:50:46.207Z,-0.76
2023-01-30T06:53:13.015Z,-0.83
2023-01-30T06:55:39.507Z,-0.79
2023-01-30T06:58:13.948Z,-0.77
2023-01-30T07:00:42.375Z,-0.79
2023-01-30T07:03:14.810Z,-0.79
2023-01-30T07:05:42.853Z,-0.82
2023-01-30T07:08:09.712Z,-0.81
2023-01-30T07:10:36.415Z,-0.69
2023-01-30T07:13:03.761Z,-0.86
2023-01-30T07:15:31.313Z,-0.92
2023-01-30T07:17:58.377Z,-0.90
2023-01-30T07:20:25.045Z,-0.92
2023-01-30T07:22:52.877Z,-0.93
2023-01-30T07:25:21.113Z,-0.82
2023-01-30T07:27:55.200Z,-0.82
2023-01-30T07:30:22.066Z,-0.98
2023-01-30T07:32:53.047Z,-1.02
2023-01-30T07:35:20.056Z,-1.10
2023-01-30T07:37:48.129Z,-1.20
2023-01-30T07:40:15.924Z,-1.15
2023-01-30T07:42:42.554Z,-1.24
2023-01-30T07:45:09.474Z,-1.32
2023-01-30T07:47:36.204Z,-1.36
2023-01-30T07:50:03.161Z,-1.35
2023-01-30T07:52:29.744Z,-1.40
2023-01-30T07:54:56.297Z,-1.52
2023-01-30T07:57:22.960Z,-1.51
2023-01-30T07:59:49.659Z,-1.37
2023-01-30T08:02:16.241Z,-1.35
2023-01-30T08:04:42.876Z,-1.37
2023-01-30T08:07:09.831Z,-1.42
2023-01-30T08:09:36.753Z,-1.54
2023-01-30T08:12:03.310Z,-1.61
2023-01-30T08:14:29.959Z,-1.65
2023-01-30T08:16:57.211Z,-1.61
2023-01-30T08:19:23.993Z,-1.66
2023-01-30T08:21:50.552Z,-1.67
2023-01-30T08:24:17.207Z,-1.72
2023-01-30T08:26:43.787Z,-1.65
2023-01-30T08:29:10.338Z,-1.67
2023-01-30T08:31:36.922Z,-1.70
2023-01-30T08:34:03.438Z,-1.70
2023-01-30T08:36:30.267Z,-1.73
2023-01-30T08:38:57.062Z,-1.72
2023-01-30T08:41:23.559Z,-1.66
2023-01-30T08:43:50.104Z,-1.66
2023-01-30T08:46:17.395Z,-1.71
2023-01-30T08:48:49.796Z,-1.78
2023-01-30T08:51:16.780Z,-1.77
2023-01-30T08:53:43.369Z,-1.70
2023-01-30T08:56:10.023Z,-1.76
2023-01-30T08:58:36.883Z,-1.82
2023-01-30T09:01:07.260Z,-1.75
2023-01-30T09:03:33.937Z,-1.77
2023-01-30T09:06:00.486Z,-1.76
2023-01-30T09:08:26.996Z,-1.61
2023-01-30T09:10:57.921Z,-1.66
2023-01-30T09:13:24.478Z,-1.71
2023-01-30T09:15:50.968Z,-1.63
2023-01-30T09:18:17.545Z,-1.64
2023-01-30T09:20:44.170Z,-1.67
2023-01-30T09:23:10.672Z,-1.67
2023-01-30T09:25:37.674Z,-1.51
2023-01-30T09:28:04.425Z,-1.55
2023-01-30T09:30:31.187Z,-1.61
2023-01-30T09:32:57.730Z,-1.54
2023-01-30T09:35:24.299Z,-1.48
2023-01-30T09:37:52.107Z,-1.50
2023-01-30T09:40:21.982Z,-1.49
2023-01-30T09:43:05.189Z,-1.30
2023-01-30T09:45:51.267Z,-1.31
2023-01-30T09:48:25.302Z,-1.27
2023-01-30T09:51:14.686Z,-1.17
2023-01-30T09:53:55.302Z,-1.11
2023-01-30T09:56:21.825Z,-1.16
2023-01-30T09:58:55.147Z,-1.15
2023-01-30T10:01:29.396Z,-1.28
2023-01-30T10:04:23.582Z,-1.18
2023-01-30T10:07:03.051Z,-1.17
2023-01-30T10:09:37.797Z,-1.09
2023-01-30T10:12:17.693Z,-1.04
2023-01-30T10:15:14.652Z,-1.09
2023-01-30T10:17:58.123Z,-1.13
2023-01-30T10:20:47.427Z,-1.07
2023-01-30T10:23:26.086Z,-1.05
2023-01-30T10:25:58.279Z,-1.00
2023-01-30T10:28:29.740Z,-0.98
2023-01-30T10:31:05.682Z,-1.03
2023-01-30T10:33:40.515Z,-0.94
2023-01-30T10:36:11.048Z,-0.85
2023-01-30T10:38:44.646Z,-0.99
2023-01-30T10:41:25.775Z,-0.93
2023-01-30T10:44:13.514Z,-0.89
2023-01-30T10:47:06.982Z,-0.91
2023-01-30T10:49:42.415Z,-0.95
2023-01-30T10:52:21.390Z,-0.95
2023-01-30T10:55:00.098Z,-0.97
2023-01-30T10:57:51.335Z,-1.04
2023-01-30T11:00:30.034Z,-0.98
2023-01-30T11:03:02.931Z,-0.95
2023-01-30T11:05:40.456Z,-0.92
2023-01-30T11:08:22.406Z,-0.90
2023-01-30T11:10:49.881Z,-0.91
2023-01-30T11:13:27.145Z,-0.89
2023-01-30T11:15:56.884Z,-0.89
2023-01-30T11:21:15.194Z,-0.76
2023-01-30T11:23:42.923Z,-0.70
2023-01-30T11:26:45.493Z,-0.69
2023-01-30T11:29:24.192Z,-0.64
2023-01-30T11:31:51.516Z,-0.60
2023-01-30T11:34:19.926Z,-0.57
2023-01-30T11:36:47.249Z,-0.50
2023-01-30T11:39:14.113Z,-0.46
2023-01-30T11:41:45.600Z,-0.45
2023-01-30T11:44:12.351Z,-0.40
2023-01-30T11:46:42.466Z,-0.49
2023-01-30T11:49:46.180Z,-0.48
2023-01-30T11:52:01.485Z,-0.42
2023-01-30T11:54:38.923Z,-0.36
2023-01-30T11:57:11.280Z,-0.42
2023-01-30T11:59:59.218Z,-0.43
2023-01-30T12:02:32.539Z,-0.44
2023-01-30T12:05:05.105Z,-0.45
2023-01-30T12:07:36.905Z,-0.47
2023-01-30T12:10:30.791Z,-0.51
2023-01-30T12:13:00.985Z,-0.50
2023-01-30T12:15:35.030Z,-0.53
2023-01-30T12:18:21.107Z,-0.53
2023-01-30T12:20:59.965Z,-0.56
2023-01-30T12:23:49.230Z,-0.51
2023-01-30T12:26:17.094Z,-0.54
2023-01-30T12:28:54.308Z,-0.53
2023-01-30T12:31:32.566Z,-0.46
2023-01-30T12:33:59.893Z,-0.46
2023-01-30T12:36:48.380Z,-0.40
2023-01-30T12:39:27.145Z,-0.36
2023-01-30T12:42:01.663Z,-0.41
2023-01-30T12:44:40.277Z,-0.31
2023-01-30T12:47:18.904Z,-0.29
2023-01-30T12:50:06.803Z,-0.27
2023-01-30T12:52:55.175Z,-0.30
2023-01-30T12:55:43.359Z,-0.25
2023-01-30T12:58:27.219Z,-0.23
2023-01-30T13:01:06.189Z,-0.17
2023-01-30T13:03:43.985Z,-0.18
2023-01-30T13:06:24.537Z,-0.17
2023-01-30T13:09:15.855Z,-0.21
2023-01-30T13:11:56.416Z,-0.16
2023-01-30T13:14:27.379Z,-0.23
2023-01-30T13:17:04.891Z,-0.17
2023-01-30T13:19:41.144Z,-0.14
2023-01-30T13:22:13.832Z,-0.09
2023-01-30T13:25:07.849Z,-0.13
2023-01-30T13:27:37.256Z,-0.15
2023-01-30T13:30:06.533Z,-0.13
2023-01-30T13:32:35.944Z,-0.10
2023-01-30T13:35:05.216Z,-0.09
2023-01-30T13:37:32.598Z,-0.04
2023-01-30T13:40:02.096Z,-0.06
2023-01-30T13:42:30.642Z,-0.03
2023-01-30T13:44:58.690Z,0.01
2023-01-30T13:47:39.883Z,0.01
2023-01-30T13:50:19.620Z,-0.02
2023-01-30T13:52:46.461Z,-0.02
2023-01-30T13:55:42.940Z,-0.01
2023-01-30T13:58:47.298Z,-0.02
2023-01-30T14:01:14.345Z,-0.03
2023-01-30T14:03:42.193Z,-0.05
2023-01-30T14:06:14.497Z,0.02
2023-01-30T14:08:54.950Z,0.00
2023-01-30T14:11:33.022Z,0.06
2023-01-30T14:14:03.146Z,0.07
2023-01-30T14:16:48.153Z,0.10
2023-01-30T14:19:32.318Z,0.11
2023-01-30T14:22:02.188Z,0.11
2023-01-30T14:24:31.433Z,0.13
2023-01-30T14:26:57.972Z,0.13
2023-01-30T14:29:41.017Z,0.18
2023-01-30T14:32:14.046Z,0.17
2023-01-30T14:35:14.070Z,0.17
2023-01-30T14:37:43.277Z,0.20
2023-01-30T14:40:29.641Z,0.18
2023-01-30T14:43:24.948Z,0.15
2023-01-30T14:46:16.221Z,0.23
2023-01-30T14:48:55.812Z,0.21
2023-01-30T14:51:31.418Z,0.20
2023-01-30T14:53:59.726Z,0.21
2023-01-30T14:56:45.794Z,0.21
2023-01-30T14:59:25.624Z,0.20
2023-01-30T15:02:13.197Z,0.24
2023-01-30T15:05:03.424Z,0.23
2023-01-30T15:07:48.453Z,0.24
2023-01-30T15:10:31.774Z,0.27
2023-01-30T15:13:16.785Z,0.15
2023-01-30T15:16:05.209Z,0.25
2023-01-30T15:18:53.111Z,0.22
2023-01-30T15:21:50.469Z,0.21
2023-01-30T15:24:46.527Z,0.31
2023-01-30T15:27:13.148Z,0.33
2023-01-30T15:29:51.372Z,0.31
2023-01-30T15:32:23.124Z,0.29
2023-01-30T15:34:52.292Z,0.27
2023-01-30T15:37:37.063Z,0.35
2023-01-30T15:40:11.800Z,0.37
2023-01-30T15:42:38.491Z,0.36
2023-01-30T15:45:13.853Z,0.39
2023-01-30T15:48:02.142Z,0.43
2023-01-30T15:50:28.895Z,0.43
2023-01-30T15:52:56.581Z,0.43
2023-01-30T15:55:31.530Z,0.55
2023-01-30T15:58:10.964Z,0.55
2023-01-30T16:00:41.298Z,0.55
2023-01-30T16:03:12.005Z,0.52
2023-01-30T16:05:47.076Z,0.52
2023-01-30T16:08:25.135Z,0.53
2023-01-30T16:10:52.061Z,0.55
2023-01-30T16:13:21.037Z,0.55
2023-01-30T16:15:48.788Z,0.58
2023-01-30T16:18:21.382Z,0.49
2023-01-30T16:21:01.735Z,0.57
2023-01-30T16:23:35.587Z,0.56
2023-01-30T16:26:02.431Z,0.60
2023-01-30T16:28:29.820Z,0.65
2023-01-30T16:31:07.363Z,0.65
2023-01-30T16:33:37.538Z,0.62
2023-01-30T16:36:24.078Z,0.64
2023-01-30T16:38:51.856Z,0.66
2023-01-30T16:41:27.746Z,0.62
2023-01-30T16:44:18.255Z,0.66
2023-01-30T16:46:56.569Z,0.68
2023-01-30T16:50:01.353Z,0.71
2023-01-30T16:52:41.420Z,0.73
2023-01-30T16:55:21.396Z,0.73
2023-01-30T16:57:54.104Z,0.78
2023-01-30T17:00:38.752Z,0.79
2023-01-30T17:03:28.716Z,0.83
2023-01-30T17:05:56.150Z,0.83
2023-01-30T17:08:31.919Z,0.77
2023-01-30T17:11:04.556Z,0.82
2023-01-30T17:13:42.920Z,0.85
2023-01-30T17:16:33.363Z,0.84
2023-01-30T17:19:00.925Z,0.89
2023-01-30T17:21:31.400Z,0.81
2023-01-30T17:24:01.254Z,0.82
2023-01-30T17:26:28.308Z,0.90
2023-01-30T17:28:54.825Z,0.92
2023-01-30T17:31:22.085Z,0.92
2023-01-30T17:33:48.764Z,1.00
2023-01-30T17:36:29.611Z,0.99
2023-01-30T17:38:58.187Z,1.03
2023-01-30T17:41:33.553Z,0.99
2023-01-30T17:44:00.177Z,1.02
2023-01-30T17:46:32.416Z,1.06
2023-01-30T17:48:58.947Z,1.06
2023-01-30T17:51:25.446Z,1.05
2023-01-30T17:53:54.894Z,1.11
2023-01-30T17:56:36.955Z,1.12
2023-01-30T17:59:06.420Z,1.20
2023-01-30T18:01:33.117Z,1.14
2023-01-30T18:03:59.648Z,1.12
2023-01-30T18:06:27.134Z,1.15
2023-01-30T18:08:53.705Z,1.11
2023-01-30T18:11:22.564Z,1.10
2023-01-30T18:13:49.192Z,1.09
2023-01-30T18:16:23.817Z,1.14
2023-01-30T18:18:50.626Z,1.20
2023-01-30T18:21:17.489Z,1.13
2023-01-30T18:23:44.205Z,1.09
2023-01-30T18:26:13.012Z,1.07
2023-01-30T18:28:39.847Z,1.13
2023-01-30T18:31:06.894Z,1.13
2023-01-30T18:33:34.031Z,1.17
2023-01-30T18:36:08.516Z,1.22
2023-01-30T18:38:35.707Z,1.12
2023-01-30T18:41:31.308Z,1.23
2023-01-30T18:44:00.118Z,1.17
2023-01-30T18:46:27.639Z,1.16
2023-01-30T18:48:55.614Z,1.15
2023-01-30T18:51:27.863Z,1.15
2023-01-30T18:53:55.130Z,1.11
2023-01-30T18:56:24.987Z,1.18
2023-01-30T18:58:54.518Z,1.13
2023-01-30T19:01:23.527Z,1.13
2023-01-30T19:03:50.271Z,1.12
2023-01-30T19:06:18.819Z,1.13
2023-01-30T19:08:45.580Z,1.09
2023-01-30T19:11:35.870Z,1.08
2023-01-30T19:14:03.448Z,1.05
2023-01-30T19:16:34.052Z,0.99
2023-01-30T19:19:00.613Z,1.03
2023-01-30T19:21:27.233Z,1.03
2023-01-30T19:23:54.436Z,1.01
2023-01-30T19:26:22.576Z,1.05
2023-01-30T19:28:49.447Z,1.07
2023-01-30T19:31:18.396Z,1.04
2023-01-30T19:33:46.714Z,1.04
2023-01-30T19:36:15.484Z,1.04
2023-01-30T19:38:42.947Z,1.06
2023-01-30T19:41:14.175Z,1.01
2023-01-30T19:43:41.057Z,1.04
2023-01-30T19:46:08.287Z,1.02
2023-01-30T19:48:34.868Z,1.04
2023-01-30T19:51:20.492Z,1.05
2023-01-30T19:53:51.623Z,1.09
2023-01-30T19:56:21.680Z,0.99
2023-01-30T19:58:50.787Z,0.98
2023-01-30T20:01:18.909Z,0.98
2023-01-30T20:03:45.921Z,0.91
2023-01-30T20:06:17.206Z,0.94
2023-01-30T20:08:44.762Z,0.97
2023-01-30T20:11:15.669Z,0.92
2023-01-30T20:13:43.630Z,0.99
2023-01-30T20:16:13.066Z,0.93
2023-01-30T20:18:40.891Z,0.82
2023-01-30T20:21:28.200Z,0.89
2023-01-30T20:23:55.254Z,0.77
2023-01-30T20:26:23.856Z,0.81
2023-01-30T20:28:50.989Z,0.80
2023-01-30T20:31:20.700Z,0.89
2023-01-30T20:33:47.387Z,0.96
2023-01-30T20:36:17.841Z,0.99
2023-01-30T20:38:45.043Z,0.82
2023-01-30T20:41:20.226Z,0.93
2023-01-30T20:43:51.115Z,0.89
2023-01-30T20:46:20.503Z,0.97
2023-01-30T20:48:47.578Z,0.97
2023-01-30T20:51:19.493Z,1.00
2023-01-30T20:53:54.803Z,0.98
2023-01-30T20:56:22.710Z,0.91
2023-01-30T20:58:49.251Z,0.93
2023-01-30T21:01:21.532Z,0.95
2023-01-30T21:03:50.513Z,0.93
2023-01-30T21:06:41.333Z,0.86
2023-01-30T21:09:11.808Z,0.92
2023-01-30T21:11:39.464Z,0.91
2023-01-30T21:14:06.132Z,0.88
2023-01-30T21:16:33.856Z,0.87
2023-01-30T21:19:03.275Z,0.90
2023-01-30T21:21:33.045Z,0.81
2023-01-30T21:24:02.581Z,0.76
2023-01-30T21:26:31.539Z,0.74
2023-01-30T21:29:00.287Z,0.77
2023-01-30T21:31:28.899Z,0.71
2023-01-30T21:33:56.615Z,0.75
2023-01-30T21:36:23.710Z,0.65
2023-01-30T21:39:08.894Z,0.69
2023-01-30T21:41:59.177Z,0.66
2023-01-30T21:44:27.785Z,0.71
2023-01-30T21:46:54.401Z,0.66
2023-01-30T21:49:21.229Z,0.65
2023-01-30T21:51:49.309Z,0.67
2023-01-30T21:54:17.328Z,0.49
2023-01-30T21:56:44.468Z,0.56
2023-01-30T21:59:11.849Z,0.60
2023-01-30T22:01:40.006Z,0.65
2023-01-30T22:04:09.223Z,0.62
2023-01-30T22:06:37.700Z,0.59
2023-01-30T22:09:05.429Z,0.66
2023-01-30T22:11:31.983Z,0.64
2023-01-30T22:13:58.569Z,0.60
2023-01-30T22:16:27.554Z,0.68
2023-01-30T22:18:59.877Z,0.72
2023-01-30T22:21:29.024Z,0.65
2023-01-30T22:23:55.967Z,0.72
2023-01-30T22:26:24.261Z,0.76
2023-01-30T22:28:58.704Z,0.69
2023-01-30T22:31:26.729Z,0.77
2023-01-30T22:33:55.553Z,0.81
2023-01-30T22:36:27.255Z,0.82
2023-01-30T22:38:54.614Z,0.75
2023-01-30T22:41:25.460Z,0.86
2023-01-30T22:43:56.654Z,0.84
2023-01-30T22:46:34.566Z,0.72
2023-01-30T22:49:02.202Z,0.87
2023-01-30T22:51:37.074Z,0.74
2023-01-30T22:54:15.934Z,0.86
2023-01-30T22:56:45.631Z,0.84
2023-01-30T22:59:12.970Z,0.86
2023-01-30T23:01:41.669Z,0.91
2023-01-30T23:04:16.440Z,0.79
2023-01-30T23:06:43.644Z,0.78
2023-01-30T23:09:14.691Z,0.91
2023-01-30T23:11:44.944Z,0.91
2023-01-30T23:14:14.966Z,0.89
2023-01-30T23:16:43.652Z,0.86
2023-01-30T23:19:12.169Z,0.80
2023-01-30T23:21:41.261Z,0.82
2023-01-30T23:24:11.708Z,0.86
2023-01-30T23:26:42.817Z,0.83
2023-01-30T23:29:13.034Z,0.87
2023-01-30T23:31:40.344Z,0.87
2023-01-30T23:34:10.844Z,0.90
2023-01-30T23:36:37.692Z,0.91
2023-01-30T23:39:05.430Z,0.95
2023-01-30T23:41:33.750Z,0.99
2023-01-30T23:44:00.827Z,0.97
2023-01-30T23:46:29.567Z,0.93
2023-01-30T23:48:57.875Z,1.01
2023-01-30T23:51:26.550Z,1.00
2023-01-30T23:53:54.147Z,1.00
2023-01-30T23:56:21.911Z,0.96
2023-01-30T23:58:49.856Z,1.03
